sensor_id;sensor_type;location;lat;lon;timestamp;temperature;humidity
680;DHT22;322;48.846;9.230;2022-07-09T00:00:47;13.30;99.90
680;DHT22;322;48.846;9.230;2022-07-09T00:03:14;13.30;99.90
680;DHT22;322;48.846;9.230;2022-07-09T00:05:41;13.30;99.90
680;DHT22;322;48.846;9.230;2022-07-09T00:08:08;13.30;99.90
680;DHT22;322;48.846;9.230;2022-07-09T00:10:35;13.20;99.90
680;DHT22;322;48.846;9.230;2022-07-09T00:13:01;13.10;99.90
680;DHT22;322;48.846;9.230;2022-07-09T00:15:29;13.10;99.90
680;DHT22;322;48.846;9.230;2022-07-09T00:17:56;13.00;99.90
680;DHT22;322;48.846;9.230;2022-07-09T00:20:23;12.90;99.90
680;DHT22;322;48.846;9.230;2022-07-09T00:22:50;12.90;99.90
680;DHT22;322;48.846;9.230;2022-07-09T00:25:17;12.90;99.90
680;DHT22;322;48.846;9.230;2022-07-09T00:27:43;12.90;99.90
680;DHT22;322;48.846;9.230;2022-07-09T00:30:11;13.00;99.90
680;DHT22;322;48.846;9.230;2022-07-09T00:32:39;13.00;99.90
680;DHT22;322;48.846;9.230;2022-07-09T00:35:06;13.00;99.90
680;DHT22;322;48.846;9.230;2022-07-09T00:37:33;13.10;99.90
680;DHT22;322;48.846;9.230;2022-07-09T00:40:00;13.10;99.90
680;DHT22;322;48.846;9.230;2022-07-09T00:42:27;13.00;99.90
680;DHT22;322;48.846;9.230;2022-07-09T00:44:54;12.90;99.90
680;DHT22;322;48.846;9.230;2022-07-09T00:47:20;12.90;99.90
680;DHT22;322;48.846;9.230;2022-07-09T00:49:49;12.90;99.90
680;DHT22;322;48.846;9.230;2022-07-09T00:52:16;12.90;99.90
680;DHT22;322;48.846;9.230;2022-07-09T00:54:44;12.90;99.90
680;DHT22;322;48.846;9.230;2022-07-09T00:57:11;12.90;99.90
680;DHT22;322;48.846;9.230;2022-07-09T00:59:39;12.90;99.90
680;DHT22;322;48.846;9.230;2022-07-09T01:02:07;12.80;99.90
680;DHT22;322;48.846;9.230;2022-07-09T01:04:34;12.70;99.90
680;DHT22;322;48.846;9.230;2022-07-09T01:07:03;12.60;99.90
680;DHT22;322;48.846;9.230;2022-07-09T01:09:30;12.60;99.90
680;DHT22;322;48.846;9.230;2022-07-09T01:11:58;12.60;99.90
680;DHT22;322;48.846;9.230;2022-07-09T01:14:25;12.60;99.90
680;DHT22;322;48.846;9.230;2022-07-09T01:16:57;12.50;99.90
680;DHT22;322;48.846;9.230;2022-07-09T01:19:24;12.50;99.90
680;DHT22;322;48.846;9.230;2022-07-09T01:21:52;12.40;99.90
680;DHT22;322;48.846;9.230;2022-07-09T01:24:20;12.30;99.90
680;DHT22;322;48.846;9.230;2022-07-09T01:26:47;12.40;99.90
680;DHT22;322;48.846;9.230;2022-07-09T01:29:14;12.40;99.90
680;DHT22;322;48.846;9.230;2022-07-09T01:31:41;12.30;99.90
680;DHT22;322;48.846;9.230;2022-07-09T01:34:08;12.30;99.90
680;DHT22;322;48.846;9.230;2022-07-09T01:36:34;12.30;99.90
680;DHT22;322;48.846;9.230;2022-07-09T01:39:03;12.30;99.90
680;DHT22;322;48.846;9.230;2022-07-09T01:41:29;12.40;99.90
680;DHT22;322;48.846;9.230;2022-07-09T01:43:57;12.30;99.90
680;DHT22;322;48.846;9.230;2022-07-09T01:46:24;12.30;99.90
680;DHT22;322;48.846;9.230;2022-07-09T01:48:51;12.40;99.90
680;DHT22;322;48.846;9.230;2022-07-09T01:51:18;12.40;99.90
680;DHT22;322;48.846;9.230;2022-07-09T01:53:45;12.30;99.90
680;DHT22;322;48.846;9.230;2022-07-09T01:56:13;12.20;99.90
680;DHT22;322;48.846;9.230;2022-07-09T01:58:40;12.20;99.90
680;DHT22;322;48.846;9.230;2022-07-09T02:01:07;12.20;99.90
680;DHT22;322;48.846;9.230;2022-07-09T02:03:36;12.30;99.90
680;DHT22;322;48.846;9.230;2022-07-09T02:06:04;12.30;99.90
680;DHT22;322;48.846;9.230;2022-07-09T02:08:31;12.30;99.90
680;DHT22;322;48.846;9.230;2022-07-09T02:10:58;12.30;99.90
680;DHT22;322;48.846;9.230;2022-07-09T02:13:26;12.20;99.90
680;DHT22;322;48.846;9.230;2022-07-09T02:15:53;12.20;99.90
680;DHT22;322;48.846;9.230;2022-07-09T02:18:20;12.10;99.90
680;DHT22;322;48.846;9.230;2022-07-09T02:20:47;12.00;99.90
680;DHT22;322;48.846;9.230;2022-07-09T02:23:14;12.00;99.90
680;DHT22;322;48.846;9.230;2022-07-09T02:25:41;12.00;99.90
680;DHT22;322;48.846;9.230;2022-07-09T02:28:08;12.00;99.90
680;DHT22;322;48.846;9.230;2022-07-09T02:30:36;12.00;99.90
680;DHT22;322;48.846;9.230;2022-07-09T02:33:03;12.00;99.90
680;DHT22;322;48.846;9.230;2022-07-09T02:35:30;12.00;99.90
680;DHT22;322;48.846;9.230;2022-07-09T02:37:57;11.90;99.90
680;DHT22;322;48.846;9.230;2022-07-09T02:40:24;11.90;99.90
680;DHT22;322;48.846;9.230;2022-07-09T02:42:50;11.80;99.90
680;DHT22;322;48.846;9.230;2022-07-09T02:45:17;11.80;99.90
680;DHT22;322;48.846;9.230;2022-07-09T02:47:46;11.80;99.90
680;DHT22;322;48.846;9.230;2022-07-09T02:50:12;11.70;99.90
680;DHT22;322;48.846;9.230;2022-07-09T02:52:39;11.70;99.90
680;DHT22;322;48.846;9.230;2022-07-09T02:55:06;11.70;99.90
680;DHT22;322;48.846;9.230;2022-07-09T02:57:33;11.80;99.90
680;DHT22;322;48.846;9.230;2022-07-09T03:00:00;11.80;99.90
680;DHT22;322;48.846;9.230;2022-07-09T03:02:27;11.80;99.90
680;DHT22;322;48.846;9.230;2022-07-09T03:04:55;11.80;99.90
680;DHT22;322;48.846;9.230;2022-07-09T03:07:22;11.70;99.90
680;DHT22;322;48.846;9.230;2022-07-09T03:09:49;11.60;99.90
680;DHT22;322;48.846;9.230;2022-07-09T03:12:16;11.60;99.90
680;DHT22;322;48.846;9.230;2022-07-09T03:14:42;11.60;99.90
680;DHT22;322;48.846;9.230;2022-07-09T03:17:09;11.60;99.90
680;DHT22;322;48.846;9.230;2022-07-09T03:19:36;11.60;99.90
680;DHT22;322;48.846;9.230;2022-07-09T03:22:04;11.60;99.90
680;DHT22;322;48.846;9.230;2022-07-09T03:24:31;11.50;99.90
680;DHT22;322;48.846;9.230;2022-07-09T03:26:58;11.50;99.90
680;DHT22;322;48.846;9.230;2022-07-09T03:29:25;11.50;99.90
680;DHT22;322;48.846;9.230;2022-07-09T03:31:52;11.50;99.90
680;DHT22;322;48.846;9.230;2022-07-09T03:34:19;11.40;99.90
680;DHT22;322;48.846;9.230;2022-07-09T03:36:45;11.50;99.90
680;DHT22;322;48.846;9.230;2022-07-09T03:39:13;11.50;99.90
680;DHT22;322;48.846;9.230;2022-07-09T03:41:41;11.40;99.90
680;DHT22;322;48.846;9.230;2022-07-09T03:44:07;11.30;99.90
680;DHT22;322;48.846;9.230;2022-07-09T03:46:34;11.30;99.90
680;DHT22;322;48.846;9.230;2022-07-09T03:49:01;11.30;99.90
680;DHT22;322;48.846;9.230;2022-07-09T03:51:28;11.40;99.90
680;DHT22;322;48.846;9.230;2022-07-09T03:53:55;11.40;99.90
680;DHT22;322;48.846;9.230;2022-07-09T03:56:23;11.40;99.90
680;DHT22;322;48.846;9.230;2022-07-09T03:58:50;11.40;99.90
680;DHT22;322;48.846;9.230;2022-07-09T04:01:17;11.40;99.90
680;DHT22;322;48.846;9.230;2022-07-09T04:03:44;11.60;99.90
680;DHT22;322;48.846;9.230;2022-07-09T04:06:11;11.60;99.90
680;DHT22;322;48.846;9.230;2022-07-09T04:08:37;11.70;99.90
680;DHT22;322;48.846;9.230;2022-07-09T04:11:04;11.70;99.90
680;DHT22;322;48.846;9.230;2022-07-09T04:13:32;11.80;99.90
680;DHT22;322;48.846;9.230;2022-07-09T04:15:59;11.80;99.90
680;DHT22;322;48.846;9.230;2022-07-09T04:18:26;11.80;99.90
680;DHT22;322;48.846;9.230;2022-07-09T04:20:53;11.80;99.90
680;DHT22;322;48.846;9.230;2022-07-09T04:23:20;11.80;99.90
680;DHT22;322;48.846;9.230;2022-07-09T04:25:46;11.80;99.90
680;DHT22;322;48.846;9.230;2022-07-09T04:28:16;11.90;99.90
680;DHT22;322;48.846;9.230;2022-07-09T04:30:44;12.00;99.90
680;DHT22;322;48.846;9.230;2022-07-09T04:33:11;12.00;99.90
680;DHT22;322;48.846;9.230;2022-07-09T04:35:38;12.10;99.90
680;DHT22;322;48.846;9.230;2022-07-09T04:38:05;12.20;99.90
680;DHT22;322;48.846;9.230;2022-07-09T04:40:31;12.30;99.90
680;DHT22;322;48.846;9.230;2022-07-09T04:42:58;12.40;99.90
680;DHT22;322;48.846;9.230;2022-07-09T04:45:25;12.50;99.90
680;DHT22;322;48.846;9.230;2022-07-09T04:47:56;12.70;99.90
680;DHT22;322;48.846;9.230;2022-07-09T04:50:23;12.80;99.90
680;DHT22;322;48.846;9.230;2022-07-09T04:52:50;12.80;99.90
680;DHT22;322;48.846;9.230;2022-07-09T04:55:17;12.90;99.90
680;DHT22;322;48.846;9.230;2022-07-09T04:57:44;13.00;99.90
680;DHT22;322;48.846;9.230;2022-07-09T05:00:11;13.20;99.90
680;DHT22;322;48.846;9.230;2022-07-09T05:02:38;13.20;99.90
680;DHT22;322;48.846;9.230;2022-07-09T05:05:08;13.30;99.90
680;DHT22;322;48.846;9.230;2022-07-09T05:07:35;13.40;99.90
680;DHT22;322;48.846;9.230;2022-07-09T05:10:03;13.50;99.90
680;DHT22;322;48.846;9.230;2022-07-09T05:12:30;13.60;99.90
680;DHT22;322;48.846;9.230;2022-07-09T05:14:57;13.70;99.90
680;DHT22;322;48.846;9.230;2022-07-09T05:17:24;13.80;99.90
680;DHT22;322;48.846;9.230;2022-07-09T05:19:51;13.90;99.90
680;DHT22;322;48.846;9.230;2022-07-09T05:22:19;14.00;99.90
680;DHT22;322;48.846;9.230;2022-07-09T05:24:48;14.10;99.90
680;DHT22;322;48.846;9.230;2022-07-09T05:27:15;14.20;99.90
680;DHT22;322;48.846;9.230;2022-07-09T05:29:42;14.30;99.90
680;DHT22;322;48.846;9.230;2022-07-09T05:32:08;14.40;99.90
680;DHT22;322;48.846;9.230;2022-07-09T05:34:35;14.40;99.90
680;DHT22;322;48.846;9.230;2022-07-09T05:37:02;14.50;99.90
680;DHT22;322;48.846;9.230;2022-07-09T05:39:30;14.60;99.90
680;DHT22;322;48.846;9.230;2022-07-09T05:41:57;14.70;99.90
680;DHT22;322;48.846;9.230;2022-07-09T05:44:24;14.80;99.90
680;DHT22;322;48.846;9.230;2022-07-09T05:46:51;14.90;99.90
680;DHT22;322;48.846;9.230;2022-07-09T05:49:18;14.90;99.90
680;DHT22;322;48.846;9.230;2022-07-09T05:51:45;15.00;99.90
680;DHT22;322;48.846;9.230;2022-07-09T05:54:12;15.10;99.90
680;DHT22;322;48.846;9.230;2022-07-09T05:56:40;15.20;99.90
680;DHT22;322;48.846;9.230;2022-07-09T05:59:07;15.40;99.90
680;DHT22;322;48.846;9.230;2022-07-09T06:01:34;15.50;99.90
680;DHT22;322;48.846;9.230;2022-07-09T06:04:05;15.60;99.90
680;DHT22;322;48.846;9.230;2022-07-09T06:06:32;15.70;99.90
680;DHT22;322;48.846;9.230;2022-07-09T06:08:59;15.80;99.90
680;DHT22;322;48.846;9.230;2022-07-09T06:11:26;16.00;99.90
680;DHT22;322;48.846;9.230;2022-07-09T06:13:54;16.10;99.90
680;DHT22;322;48.846;9.230;2022-07-09T06:16:21;16.10;99.90
680;DHT22;322;48.846;9.230;2022-07-09T06:18:48;16.20;99.90
680;DHT22;322;48.846;9.230;2022-07-09T06:21:15;16.40;99.90
680;DHT22;322;48.846;9.230;2022-07-09T06:23:41;16.50;99.90
680;DHT22;322;48.846;9.230;2022-07-09T06:26:08;16.70;99.90
680;DHT22;322;48.846;9.230;2022-07-09T06:28:36;16.90;99.90
680;DHT22;322;48.846;9.230;2022-07-09T06:31:05;17.10;99.90
680;DHT22;322;48.846;9.230;2022-07-09T06:33:32;17.40;99.90
680;DHT22;322;48.846;9.230;2022-07-09T06:35:59;17.60;99.90
680;DHT22;322;48.846;9.230;2022-07-09T06:38:27;17.90;99.90
680;DHT22;322;48.846;9.230;2022-07-09T06:40:54;18.20;99.90
680;DHT22;322;48.846;9.230;2022-07-09T06:43:21;18.30;99.90
680;DHT22;322;48.846;9.230;2022-07-09T06:45:48;18.40;99.90
680;DHT22;322;48.846;9.230;2022-07-09T06:48:16;18.40;99.90
680;DHT22;322;48.846;9.230;2022-07-09T06:50:43;18.40;99.90
680;DHT22;322;48.846;9.230;2022-07-09T06:53:10;18.30;99.90
680;DHT22;322;48.846;9.230;2022-07-09T06:55:36;18.30;99.90
680;DHT22;322;48.846;9.230;2022-07-09T06:58:03;18.30;99.90
680;DHT22;322;48.846;9.230;2022-07-09T07:00:30;18.30;99.90
680;DHT22;322;48.846;9.230;2022-07-09T07:02:57;18.20;99.90
680;DHT22;322;48.846;9.230;2022-07-09T07:05:27;18.30;99.90
680;DHT22;322;48.846;9.230;2022-07-09T07:07:54;18.30;99.90
680;DHT22;322;48.846;9.230;2022-07-09T07:10:21;18.30;99.90
680;DHT22;322;48.846;9.230;2022-07-09T07:12:48;18.40;99.90
680;DHT22;322;48.846;9.230;2022-07-09T07:15:14;18.50;99.90
680;DHT22;322;48.846;9.230;2022-07-09T07:17:41;18.70;99.90
680;DHT22;322;48.846;9.230;2022-07-09T07:20:09;19.00;99.90
680;DHT22;322;48.846;9.230;2022-07-09T07:22:37;19.40;99.90
680;DHT22;322;48.846;9.230;2022-07-09T07:25:04;19.70;99.90
680;DHT22;322;48.846;9.230;2022-07-09T07:27:31;19.70;99.90
680;DHT22;322;48.846;9.230;2022-07-09T07:29:58;19.80;99.90
680;DHT22;322;48.846;9.230;2022-07-09T07:32:25;20.00;99.90
680;DHT22;322;48.846;9.230;2022-07-09T07:34:52;20.00;99.90
680;DHT22;322;48.846;9.230;2022-07-09T07:37:18;20.10;99.90
680;DHT22;322;48.846;9.230;2022-07-09T07:39:47;20.10;99.90
680;DHT22;322;48.846;9.230;2022-07-09T07:42:14;20.00;99.90
680;DHT22;322;48.846;9.230;2022-07-09T07:44:41;19.80;99.90
680;DHT22;322;48.846;9.230;2022-07-09T07:47:08;19.80;99.90
680;DHT22;322;48.846;9.230;2022-07-09T07:49:35;19.90;99.90
680;DHT22;322;48.846;9.230;2022-07-09T07:52:02;19.80;99.90
680;DHT22;322;48.846;9.230;2022-07-09T07:54:29;20.00;99.90
680;DHT22;322;48.846;9.230;2022-07-09T07:56:57;20.10;99.90
680;DHT22;322;48.846;9.230;2022-07-09T07:59:24;20.20;99.90
680;DHT22;322;48.846;9.230;2022-07-09T08:01:51;20.30;99.90
680;DHT22;322;48.846;9.230;2022-07-09T08:04:18;20.30;99.90
680;DHT22;322;48.846;9.230;2022-07-09T08:06:44;20.50;99.90
680;DHT22;322;48.846;9.230;2022-07-09T08:09:11;20.70;99.90
680;DHT22;322;48.846;9.230;2022-07-09T08:11:38;20.80;99.90
680;DHT22;322;48.846;9.230;2022-07-09T08:14:06;21.00;99.90
680;DHT22;322;48.846;9.230;2022-07-09T08:16:34;21.20;99.90
680;DHT22;322;48.846;9.230;2022-07-09T08:19:01;21.20;99.90
680;DHT22;322;48.846;9.230;2022-07-09T08:21:28;21.20;99.90
680;DHT22;322;48.846;9.230;2022-07-09T08:23:55;21.20;99.90
680;DHT22;322;48.846;9.230;2022-07-09T08:26:23;21.30;99.90
680;DHT22;322;48.846;9.230;2022-07-09T08:28:50;21.50;99.90
680;DHT22;322;48.846;9.230;2022-07-09T08:31:20;21.60;99.90
680;DHT22;322;48.846;9.230;2022-07-09T08:33:47;21.80;99.90
680;DHT22;322;48.846;9.230;2022-07-09T08:36:14;21.90;99.90
680;DHT22;322;48.846;9.230;2022-07-09T08:38:41;22.10;99.90
680;DHT22;322;48.846;9.230;2022-07-09T08:41:08;22.30;99.90
680;DHT22;322;48.846;9.230;2022-07-09T08:43:36;22.30;99.70
680;DHT22;322;48.846;9.230;2022-07-09T08:46:04;22.30;99.90
680;DHT22;322;48.846;9.230;2022-07-09T08:48:34;22.50;99.90
680;DHT22;322;48.846;9.230;2022-07-09T08:51:01;22.50;99.90
680;DHT22;322;48.846;9.230;2022-07-09T08:53:29;22.60;99.90
680;DHT22;322;48.846;9.230;2022-07-09T08:55:56;22.60;99.90
680;DHT22;322;48.846;9.230;2022-07-09T08:58:24;22.70;98.80
680;DHT22;322;48.846;9.230;2022-07-09T09:00:51;22.70;99.90
680;DHT22;322;48.846;9.230;2022-07-09T09:03:18;22.60;99.30
680;DHT22;322;48.846;9.230;2022-07-09T09:06:00;22.50;98.80
680;DHT22;322;48.846;9.230;2022-07-09T09:08:28;22.50;99.10
680;DHT22;322;48.846;9.230;2022-07-09T09:10:59;22.60;99.90
680;DHT22;322;48.846;9.230;2022-07-09T09:13:25;22.70;99.50
680;DHT22;322;48.846;9.230;2022-07-09T09:16:02;22.60;98.50
680;DHT22;322;48.846;9.230;2022-07-09T09:18:29;22.70;99.60
680;DHT22;322;48.846;9.230;2022-07-09T09:21:03;22.90;99.70
680;DHT22;322;48.846;9.230;2022-07-09T09:23:38;23.00;98.70
680;DHT22;322;48.846;9.230;2022-07-09T09:26:10;23.20;98.00
680;DHT22;322;48.846;9.230;2022-07-09T09:28:46;23.30;97.70
680;DHT22;322;48.846;9.230;2022-07-09T09:31:20;23.30;97.30
680;DHT22;322;48.846;9.230;2022-07-09T09:33:47;23.40;97.30
680;DHT22;322;48.846;9.230;2022-07-09T09:36:28;23.40;96.10
680;DHT22;322;48.846;9.230;2022-07-09T09:39:07;23.40;95.90
680;DHT22;322;48.846;9.230;2022-07-09T09:41:34;23.60;96.40
680;DHT22;322;48.846;9.230;2022-07-09T09:44:05;23.60;94.80
680;DHT22;322;48.846;9.230;2022-07-09T09:46:35;23.60;94.90
680;DHT22;322;48.846;9.230;2022-07-09T09:49:03;23.70;95.70
680;DHT22;322;48.846;9.230;2022-07-09T09:51:35;24.00;95.60
680;DHT22;322;48.846;9.230;2022-07-09T09:54:03;24.50;95.60
680;DHT22;322;48.846;9.230;2022-07-09T09:56:31;24.90;96.60
680;DHT22;322;48.846;9.230;2022-07-09T09:58:59;25.30;93.90
680;DHT22;322;48.846;9.230;2022-07-09T10:01:27;25.00;93.10
680;DHT22;322;48.846;9.230;2022-07-09T10:03:55;25.30;92.70
680;DHT22;322;48.846;9.230;2022-07-09T10:06:22;25.80;91.50
680;DHT22;322;48.846;9.230;2022-07-09T10:08:51;26.40;90.60
680;DHT22;322;48.846;9.230;2022-07-09T10:11:18;26.70;91.40
680;DHT22;322;48.846;9.230;2022-07-09T10:13:53;27.70;90.10
680;DHT22;322;48.846;9.230;2022-07-09T10:16:32;28.60;85.20
680;DHT22;322;48.846;9.230;2022-07-09T10:18:59;29.50;87.80
680;DHT22;322;48.846;9.230;2022-07-09T10:21:37;29.40;84.80
680;DHT22;322;48.846;9.230;2022-07-09T10:24:07;28.40;80.00
680;DHT22;322;48.846;9.230;2022-07-09T10:26:44;27.50;82.00
680;DHT22;322;48.846;9.230;2022-07-09T10:29:22;27.00;81.00
680;DHT22;322;48.846;9.230;2022-07-09T10:31:49;26.40;83.50
680;DHT22;322;48.846;9.230;2022-07-09T10:37:33;26.10;82.50
680;DHT22;322;48.846;9.230;2022-07-09T10:40:12;27.30;79.20
680;DHT22;322;48.846;9.230;2022-07-09T10:42:40;27.80;77.40
680;DHT22;322;48.846;9.230;2022-07-09T10:45:23;28.00;76.00
680;DHT22;322;48.846;9.230;2022-07-09T10:47:52;28.20;75.70
680;DHT22;322;48.846;9.230;2022-07-09T10:50:19;27.80;75.00
680;DHT22;322;48.846;9.230;2022-07-09T10:52:46;27.50;74.20
680;DHT22;322;48.846;9.230;2022-07-09T10:55:17;28.00;75.70
680;DHT22;322;48.846;9.230;2022-07-09T10:57:44;28.70;73.50
680;DHT22;322;48.846;9.230;2022-07-09T11:00:14;28.10;74.90
680;DHT22;322;48.846;9.230;2022-07-09T11:02:54;27.70;76.70
680;DHT22;322;48.846;9.230;2022-07-09T11:05:21;26.80;79.80
680;DHT22;322;48.846;9.230;2022-07-09T11:07:56;26.00;81.00
680;DHT22;322;48.846;9.230;2022-07-09T11:10:25;25.30;82.70
680;DHT22;322;48.846;9.230;2022-07-09T11:12:53;24.90;84.30
680;DHT22;322;48.846;9.230;2022-07-09T11:15:21;24.60;85.10
680;DHT22;322;48.846;9.230;2022-07-09T11:17:56;24.40;85.20
680;DHT22;322;48.846;9.230;2022-07-09T11:20:23;24.50;89.20
680;DHT22;322;48.846;9.230;2022-07-09T11:22:50;24.80;91.10
680;DHT22;322;48.846;9.230;2022-07-09T11:25:18;25.90;87.00
680;DHT22;322;48.846;9.230;2022-07-09T11:27:46;27.90;80.40
680;DHT22;322;48.846;9.230;2022-07-09T11:30:14;29.60;75.30
680;DHT22;322;48.846;9.230;2022-07-09T11:32:41;29.50;71.70
680;DHT22;322;48.846;9.230;2022-07-09T11:35:08;28.80;71.60
680;DHT22;322;48.846;9.230;2022-07-09T11:37:35;28.30;71.20
680;DHT22;322;48.846;9.230;2022-07-09T11:40:03;27.60;77.10
680;DHT22;322;48.846;9.230;2022-07-09T11:42:30;26.80;81.30
680;DHT22;322;48.846;9.230;2022-07-09T11:45:00;26.40;83.30
680;DHT22;322;48.846;9.230;2022-07-09T11:47:34;26.20;85.50
680;DHT22;322;48.846;9.230;2022-07-09T11:50:08;26.30;85.40
680;DHT22;322;48.846;9.230;2022-07-09T11:52:36;26.20;83.90
680;DHT22;322;48.846;9.230;2022-07-09T11:55:05;26.10;85.20
680;DHT22;322;48.846;9.230;2022-07-09T11:57:34;26.10;85.70
680;DHT22;322;48.846;9.230;2022-07-09T12:00:04;26.20;86.60
680;DHT22;322;48.846;9.230;2022-07-09T12:02:33;26.40;84.50
680;DHT22;322;48.846;9.230;2022-07-09T12:05:03;26.80;85.00
680;DHT22;322;48.846;9.230;2022-07-09T12:07:31;27.30;83.20
680;DHT22;322;48.846;9.230;2022-07-09T12:09:58;27.90;81.60
680;DHT22;322;48.846;9.230;2022-07-09T12:12:26;28.10;77.80
680;DHT22;322;48.846;9.230;2022-07-09T12:14:53;27.80;76.40
680;DHT22;322;48.846;9.230;2022-07-09T12:17:24;28.00;77.60
680;DHT22;322;48.846;9.230;2022-07-09T12:19:51;28.70;76.10
680;DHT22;322;48.846;9.230;2022-07-09T12:22:18;28.60;75.80
680;DHT22;322;48.846;9.230;2022-07-09T12:24:45;28.20;76.60
680;DHT22;322;48.846;9.230;2022-07-09T12:27:12;27.40;77.10
680;DHT22;322;48.846;9.230;2022-07-09T12:29:39;26.90;76.40
680;DHT22;322;48.846;9.230;2022-07-09T12:32:06;26.60;76.90
680;DHT22;322;48.846;9.230;2022-07-09T12:34:35;27.30;77.40
680;DHT22;322;48.846;9.230;2022-07-09T12:37:02;27.80;75.20
680;DHT22;322;48.846;9.230;2022-07-09T12:39:29;28.00;75.90
680;DHT22;322;48.846;9.230;2022-07-09T12:41:56;28.40;75.20
680;DHT22;322;48.846;9.230;2022-07-09T12:44:23;28.50;72.00
680;DHT22;322;48.846;9.230;2022-07-09T12:46:50;28.20;72.60
680;DHT22;322;48.846;9.230;2022-07-09T12:49:17;28.10;74.50
680;DHT22;322;48.846;9.230;2022-07-09T12:51:46;28.30;76.20
680;DHT22;322;48.846;9.230;2022-07-09T12:54:12;28.90;71.80
680;DHT22;322;48.846;9.230;2022-07-09T12:56:39;29.40;71.60
680;DHT22;322;48.846;9.230;2022-07-09T12:59:06;29.70;70.90
680;DHT22;322;48.846;9.230;2022-07-09T13:01:33;29.80;68.50
680;DHT22;322;48.846;9.230;2022-07-09T13:04:00;29.90;69.40
680;DHT22;322;48.846;9.230;2022-07-09T13:06:27;29.60;68.10
680;DHT22;322;48.846;9.230;2022-07-09T13:09:02;29.40;69.00
680;DHT22;322;48.846;9.230;2022-07-09T13:11:30;29.20;69.70
680;DHT22;322;48.846;9.230;2022-07-09T13:13:57;29.50;68.80
680;DHT22;322;48.846;9.230;2022-07-09T13:16:25;29.80;64.80
680;DHT22;322;48.846;9.230;2022-07-09T13:18:52;30.50;66.30
680;DHT22;322;48.846;9.230;2022-07-09T13:21:20;30.60;64.70
680;DHT22;322;48.846;9.230;2022-07-09T13:23:48;30.50;63.20
680;DHT22;322;48.846;9.230;2022-07-09T13:26:17;30.40;65.30
680;DHT22;322;48.846;9.230;2022-07-09T13:28:44;31.00;65.00
680;DHT22;322;48.846;9.230;2022-07-09T13:31:11;31.30;65.00
680;DHT22;322;48.846;9.230;2022-07-09T13:33:38;30.70;63.10
680;DHT22;322;48.846;9.230;2022-07-09T13:36:06;30.10;62.20
680;DHT22;322;48.846;9.230;2022-07-09T13:38:33;29.70;65.80
680;DHT22;322;48.846;9.230;2022-07-09T13:41:00;29.20;67.20
680;DHT22;322;48.846;9.230;2022-07-09T13:43:29;28.70;67.70
680;DHT22;322;48.846;9.230;2022-07-09T13:45:56;28.10;70.00
680;DHT22;322;48.846;9.230;2022-07-09T13:48:24;27.90;71.50
680;DHT22;322;48.846;9.230;2022-07-09T13:50:52;28.00;72.40
680;DHT22;322;48.846;9.230;2022-07-09T13:53:19;28.10;71.70
680;DHT22;322;48.846;9.230;2022-07-09T13:55:46;28.30;70.90
680;DHT22;322;48.846;9.230;2022-07-09T13:58:13;28.40;71.60
680;DHT22;322;48.846;9.230;2022-07-09T14:00:41;28.30;71.80
680;DHT22;322;48.846;9.230;2022-07-09T14:03:08;28.30;73.20
680;DHT22;322;48.846;9.230;2022-07-09T14:05:36;28.30;70.90
680;DHT22;322;48.846;9.230;2022-07-09T14:08:03;27.80;72.30
680;DHT22;322;48.846;9.230;2022-07-09T14:10:30;27.60;73.40
680;DHT22;322;48.846;9.230;2022-07-09T14:12:57;27.60;72.70
680;DHT22;322;48.846;9.230;2022-07-09T14:15:25;27.80;73.60
680;DHT22;322;48.846;9.230;2022-07-09T14:17:53;28.20;73.10
680;DHT22;322;48.846;9.230;2022-07-09T14:20:20;28.10;72.50
680;DHT22;322;48.846;9.230;2022-07-09T14:22:47;28.00;73.70
680;DHT22;322;48.846;9.230;2022-07-09T14:25:14;28.00;72.10
680;DHT22;322;48.846;9.230;2022-07-09T14:27:41;28.00;73.70
680;DHT22;322;48.846;9.230;2022-07-09T14:30:09;27.60;73.80
680;DHT22;322;48.846;9.230;2022-07-09T14:32:36;27.40;75.60
680;DHT22;322;48.846;9.230;2022-07-09T14:35:05;27.10;75.70
680;DHT22;322;48.846;9.230;2022-07-09T14:37:32;27.40;76.20
680;DHT22;322;48.846;9.230;2022-07-09T14:39:58;28.10;74.10
680;DHT22;322;48.846;9.230;2022-07-09T14:42:25;28.50;71.20
680;DHT22;322;48.846;9.230;2022-07-09T14:44:52;28.20;71.60
680;DHT22;322;48.846;9.230;2022-07-09T14:47:19;27.90;73.60
680;DHT22;322;48.846;9.230;2022-07-09T14:49:46;27.60;74.70
680;DHT22;322;48.846;9.230;2022-07-09T14:52:15;27.60;74.90
680;DHT22;322;48.846;9.230;2022-07-09T14:54:43;28.10;76.50
680;DHT22;322;48.846;9.230;2022-07-09T14:57:09;29.30;71.90
680;DHT22;322;48.846;9.230;2022-07-09T14:59:36;29.90;69.60
680;DHT22;322;48.846;9.230;2022-07-09T15:02:03;29.10;67.40
680;DHT22;322;48.846;9.230;2022-07-09T15:04:30;28.90;70.60
680;DHT22;322;48.846;9.230;2022-07-09T15:06:57;29.60;69.30
680;DHT22;322;48.846;9.230;2022-07-09T15:09:26;29.70;68.30
680;DHT22;322;48.846;9.230;2022-07-09T15:11:53;30.40;70.10
680;DHT22;322;48.846;9.230;2022-07-09T15:14:20;31.40;65.20
680;DHT22;322;48.846;9.230;2022-07-09T15:16:47;31.90;65.90
680;DHT22;322;48.846;9.230;2022-07-09T15:19:14;31.60;61.00
680;DHT22;322;48.846;9.230;2022-07-09T15:21:41;31.00;63.20
680;DHT22;322;48.846;9.230;2022-07-09T15:24:07;30.60;64.50
680;DHT22;322;48.846;9.230;2022-07-09T15:26:36;30.70;64.10
680;DHT22;322;48.846;9.230;2022-07-09T15:29:03;30.60;63.80
680;DHT22;322;48.846;9.230;2022-07-09T15:31:30;30.20;66.40
680;DHT22;322;48.846;9.230;2022-07-09T15:33:57;30.30;67.50
680;DHT22;322;48.846;9.230;2022-07-09T15:36:24;30.70;66.30
680;DHT22;322;48.846;9.230;2022-07-09T15:38:50;30.80;66.10
680;DHT22;322;48.846;9.230;2022-07-09T15:41:17;30.20;65.70
680;DHT22;322;48.846;9.230;2022-07-09T15:43:45;30.10;67.10
680;DHT22;322;48.846;9.230;2022-07-09T15:46:12;29.80;66.40
680;DHT22;322;48.846;9.230;2022-07-09T15:48:39;29.50;67.20
680;DHT22;322;48.846;9.230;2022-07-09T15:51:06;29.00;68.20
680;DHT22;322;48.846;9.230;2022-07-09T15:53:33;28.50;71.00
680;DHT22;322;48.846;9.230;2022-07-09T15:56:00;28.30;71.40
680;DHT22;322;48.846;9.230;2022-07-09T15:58:27;28.70;72.00
680;DHT22;322;48.846;9.230;2022-07-09T16:00:56;28.90;72.00
680;DHT22;322;48.846;9.230;2022-07-09T16:03:22;29.00;70.50
680;DHT22;322;48.846;9.230;2022-07-09T16:05:49;28.70;70.80
680;DHT22;322;48.846;9.230;2022-07-09T16:08:16;28.50;71.30
680;DHT22;322;48.846;9.230;2022-07-09T16:10:44;28.40;71.80
680;DHT22;322;48.846;9.230;2022-07-09T16:13:10;28.00;72.90
680;DHT22;322;48.846;9.230;2022-07-09T16:15:36;27.50;74.40
680;DHT22;322;48.846;9.230;2022-07-09T16:18:05;27.00;75.90
680;DHT22;322;48.846;9.230;2022-07-09T16:20:32;26.70;77.10
680;DHT22;322;48.846;9.230;2022-07-09T16:22:59;26.30;78.40
680;DHT22;322;48.846;9.230;2022-07-09T16:25:26;26.20;79.50
680;DHT22;322;48.846;9.230;2022-07-09T16:27:53;26.00;80.00
680;DHT22;322;48.846;9.230;2022-07-09T16:30:20;25.90;80.60
680;DHT22;322;48.846;9.230;2022-07-09T16:32:47;25.80;80.90
680;DHT22;322;48.846;9.230;2022-07-09T16:35:15;25.80;81.40
680;DHT22;322;48.846;9.230;2022-07-09T16:37:42;25.80;81.20
680;DHT22;322;48.846;9.230;2022-07-09T16:40:12;25.90;81.70